Zao Maru — JE3142 — position and weather

sailwx.info

Track history (hours):
 
Tides and Currents Weather Stations Pressure Air Temp Water Temp Dewpoint Dewpoint Depression Visibility Wind Speed Wind Dir Waves Ship Positions

Zao Maru

Last reported at 2018-May-14 01:40 UTC. Time now 2018-Jun-23 10:22 UTC.
Position N 41°18' E 140°18'.
Warning: this ship's position is 40 days out of date.

Length 115 m; draft 7.4 m.

Type: Cargo ship. MMSI: 431700103.

Date/timePositionNaut miles runAvg speedWind from/ knotsBaromVisibWave heightAir tempDewpointWater temp
2018-May-14 01:40N 41°18' E 140°18'1 6.1
2018-May-14 01:26N 41°19' E 140°19'3 6.2
2018-May-14 01:00N 41°21' E 140°21'4 7.5
2018-May-14 00:30N 41°23' E 140°25'4 8.2
2018-May-14 00:00N 41°26' E 140°30'5 9.2
2018-May-13 23:30N 41°27' E 140°35'4 8.8
2018-May-13 23:00N 41°30' E 140°41'4 8.5
2018-May-13 22:30N 41°32' E 140°45'5 9.3
2018-May-13 22:01N 41°35' E 140°50'4 8.4
2018-May-13 21:31N 41°37' E 140°55'5 9.6
2018-May-13 21:00N 41°34' E 141°01'611.7
2018-May-13 20:30N 41°32' E 141°08'611.9
2018-May-13 20:00N 41°29' E 141°15'611.4
2018-May-13 19:30N 41°26' E 141°22'4 0.3
2018-May-13 05:32N 41°25' E 141°26'0 0.0
2018-May-13 05:29N 41°25' E 141°26'0 0.0
2018-May-13 04:58N 41°25' E 141°26'0 0.0
2018-May-13 04:25N 41°25' E 141°26'0 0.0
2018-May-13 04:00N 41°25' E 141°26'0 0.0
2018-May-13 03:12N 41°25' E 141°26'0 0.0
2018-May-13 02:57N 41°25' E 141°26'0 0.0
2018-May-13 02:30N 41°25' E 141°26'0 0.0
2018-May-13 02:00N 41°25' E 141°26'0 0.0
2018-May-13 00:55N 41°25' E 141°26'0 1.0
2018-May-13 00:30N 41°25' E 141°26'2 4.2
2018-May-13 00:00N 41°25' E 141°23'1 2.2
2018-May-12 23:29N 41°26' E 141°23'4 8.8
2018-May-12 23:00N 41°30' E 141°21'611.0
2018-May-12 22:29N 41°29' E 141°29'5 9.7
2018-May-12 22:00N 41°25' E 141°32'912.0
2018-May-12 21:15N 41°16' E 141°32'311.8
2018-May-12 21:00N 41°13' E 141°32'612.3
2018-May-12 20:30N 41°07' E 141°32'712.5
2018-May-12 19:59N 41°00' E 141°32'811.6
2018-May-12 19:17N 40°52' E 141°32'411.7
2018-May-12 18:56N 40°48' E 141°31'  
2018-May-10 09:07N 35°04' E 140°22'510.9
2018-May-10 08:42N 35°02' E 140°17'310.4
2018-May-10 08:23N 34°60' E 140°14'410.8
2018-May-10 07:59N 34°57' E 140°10'511.2
2018-May-10 07:30N 34°55' E 140°04'1011.3
2018-May-10 06:38N 34°51' E 139°53'110.4
2018-May-10 06:30N 34°51' E 139°52'510.1
2018-May-10 05:59N 34°52' E 139°45'611.6
2018-May-10 05:29N 34°57' E 139°43'511.4
2018-May-10 05:01N 35°03' E 139°44'611.7
2018-May-10 04:30N 35°09' E 139°45'612.5
2018-May-10 04:00N 35°15' E 139°46'612.1
2018-May-10 03:30N 35°20' E 139°43'2 3.9
2018-May-10 02:59N 35°22' E 139°44'0 0.1
2018-May-10 02:30N 35°22' E 139°44'0 0.1
2018-May-10 01:59N 35°22' E 139°44'0 0.0
2018-May-10 01:29N 35°22' E 139°44'0 0.0
2018-May-10 01:00N 35°22' E 139°44'0 0.0
2018-May-10 00:29N 35°22' E 139°44'0 0.0
2018-May-09 23:59N 35°22' E 139°44'0 0.0
2018-May-09 23:29N 35°22' E 139°44'0 0.0
2018-May-09 22:59N 35°22' E 139°44'0 0.0
2018-May-09 22:29N 35°22' E 139°44'0 0.0
2018-May-09 21:56N 35°22' E 139°44'0 0.0
2018-May-09 21:29N 35°22' E 139°44'0 0.0
2018-May-09 20:59N 35°22' E 139°44'0 0.0
2018-May-09 20:29N 35°22' E 139°44'0 0.0
2018-May-09 19:59N 35°22' E 139°44'0 0.0
2018-May-09 19:29N 35°22' E 139°44'0 0.0
2018-May-09 18:59N 35°22' E 139°44'0 0.0
2018-May-09 18:29N 35°22' E 139°44'0 0.0
2018-May-09 17:59N 35°22' E 139°44'0 0.0
2018-May-09 17:29N 35°22' E 139°44'0 0.0
2018-May-09 16:59N 35°22' E 139°44'0 0.0
2018-May-09 16:29N 35°22' E 139°44'0 0.0
2018-May-09 15:59N 35°22' E 139°44'0 0.0
2018-May-09 15:29N 35°22' E 139°44'0 0.0
2018-May-09 14:59N 35°22' E 139°44'0 0.0
2018-May-09 14:29N 35°22' E 139°44'0 0.0
2018-May-09 13:59N 35°22' E 139°44'0 0.0
2018-May-09 13:29N 35°22' E 139°44'0 0.0
2018-May-09 12:59N 35°22' E 139°44'0 0.0
2018-May-09 12:29N 35°22' E 139°44'0 0.0
2018-May-09 12:00N 35°22' E 139°44'0 0.0
2018-May-09 11:29N 35°22' E 139°44'0 0.0
2018-May-09 10:56N 35°22' E 139°44'0 0.0
2018-May-09 10:29N 35°22' E 139°44'0 0.0
2018-May-09 09:59N 35°22' E 139°44'0 0.0
2018-May-09 09:29N 35°22' E 139°44'0 0.0
2018-May-09 08:59N 35°22' E 139°44'0 0.0
2018-May-09 08:29N 35°22' E 139°44'0 0.0
2018-May-09 07:59N 35°22' E 139°44'0 0.0
2018-May-09 07:29N 35°22' E 139°44'0 0.0
2018-May-09 06:59N 35°22' E 139°44'0 0.0
2018-May-09 06:29N 35°22' E 139°44'0 0.0
2018-May-09 05:59N 35°22' E 139°44'0 0.0
2018-May-09 05:29N 35°22' E 139°44'0 0.0
2018-May-09 04:59N 35°22' E 139°44'0 0.1
2018-May-09 04:29N 35°22' E 139°44'0 0.0
2018-May-09 03:59N 35°22' E 139°44'0 0.0
2018-May-09 03:29N 35°22' E 139°44'0 0.0
2018-May-09 02:59N 35°22' E 139°44'0 0.0
2018-May-09 02:29N 35°22' E 139°44'0 0.0
2018-May-09 01:56N 35°22' E 139°44'0 0.0
2018-May-09 01:29N 35°22' E 139°44'0 0.0
2018-May-09 00:59N 35°22' E 139°44'0 0.0
2018-May-09 00:29N 35°22' E 139°44'0 0.0
2018-May-08 23:59N 35°22' E 139°44'0 0.0
2018-May-08 23:29N 35°22' E 139°44'0 0.0
2018-May-08 22:59N 35°22' E 139°44'0 0.0
2018-May-08 22:29N 35°22' E 139°44'0 0.0
2018-May-08 21:59N 35°22' E 139°44'0 0.0
2018-May-08 21:29N 35°22' E 139°44'0 0.0
2018-May-08 20:59N 35°22' E 139°44'0 0.0
2018-May-08 20:29N 35°22' E 139°44'0 0.1
2018-May-08 19:59N 35°22' E 139°44'0 0.0
2018-May-08 19:29N 35°22' E 139°44'0 0.0
2018-May-08 18:59N 35°22' E 139°44'0 0.0
2018-May-08 18:29N 35°22' E 139°44'0 0.0
2018-May-08 17:59N 35°22' E 139°44'0 0.0
2018-May-08 17:29N 35°22' E 139°44'0 0.0
2018-May-08 16:59N 35°22' E 139°44'0 0.0
2018-May-08 16:26N 35°22' E 139°44'0 0.0
2018-May-08 15:59N 35°22' E 139°44'0 0.0
2018-May-08 15:29N 35°22' E 139°44'0 0.0
2018-May-08 14:59N 35°22' E 139°44'0 0.0
2018-May-08 14:29N 35°22' E 139°44'0 0.0
2018-May-08 13:56N 35°22' E 139°44'0 0.0
2018-May-08 13:29N 35°22' E 139°44'0 0.0
2018-May-08 12:59N 35°22' E 139°44'0 0.0
2018-May-08 12:29N 35°22' E 139°44'0 0.0
2018-May-08 11:59N 35°22' E 139°44'0 0.0
2018-May-08 11:29N 35°22' E 139°44'0 0.0
2018-May-08 10:59N 35°22' E 139°44'0 0.0
2018-May-08 10:29N 35°22' E 139°44'0 0.0
2018-May-08 09:59N 35°22' E 139°44'0 0.0
2018-May-08 09:29N 35°22' E 139°44'0 0.0
2018-May-08 08:59N 35°22' E 139°44'0 0.0
2018-May-08 08:29N 35°22' E 139°44'0 0.0
2018-May-08 07:59N 35°22' E 139°44'0 0.0
2018-May-08 07:29N 35°22' E 139°44'0 0.0
2018-May-08 06:59N 35°22' E 139°44'0 0.0
2018-May-08 06:29N 35°22' E 139°44'0 0.0
2018-May-08 05:59N 35°22' E 139°44'0 0.0
2018-May-08 05:29N 35°22' E 139°44'0 0.0
2018-May-08 04:59N 35°22' E 139°44'0 0.0
2018-May-08 04:29N 35°22' E 139°44'0 0.0
2018-May-08 03:59N 35°22' E 139°44'0 0.0
2018-May-08 03:29N 35°22' E 139°44'0 0.0
2018-May-08 02:59N 35°22' E 139°44'0 0.2
2018-May-08 02:30N 35°22' E 139°44'3 5.6
2018-May-08 02:00N 35°25' E 139°43'4 9.0
2018-May-08 01:30N 35°29' E 139°40'0 0.6
2018-May-08 00:59N 35°29' E 139°40'0 0.0
2018-May-08 00:30N 35°29' E 139°40'0 0.0
2018-May-08 00:00N 35°29' E 139°40'0 0.0
2018-May-07 23:30N 35°29' E 139°40'0 0.0
2018-May-07 23:00N 35°29' E 139°40'0 0.0
2018-May-07 22:28N 35°29' E 139°40'0 0.0
2018-May-07 21:58N 35°29' E 139°40'0 0.0
2018-May-07 21:28N 35°29' E 139°40'0 0.0
2018-May-07 20:58N 35°29' E 139°40'0 0.0
2018-May-07 20:28N 35°29' E 139°40'0 0.0
2018-May-07 19:58N 35°29' E 139°40'0 0.0
2018-May-07 19:28N 35°29' E 139°40'0 0.0
2018-May-07 18:58N 35°29' E 139°40'0 0.0
2018-May-07 18:28N 35°29' E 139°40'0 0.0
2018-May-07 17:58N 35°29' E 139°40'0 0.0
2018-May-07 17:28N 35°29' E 139°40'0 0.0
2018-May-07 16:58N 35°29' E 139°40'0 0.0
2018-May-07 16:25N 35°29' E 139°40'0 0.0
2018-May-07 15:58N 35°29' E 139°40'0 0.0
2018-May-07 15:28N 35°29' E 139°40'0 0.0
2018-May-07 14:55N 35°29' E 139°40'0 0.0
2018-May-07 14:28N 35°29' E 139°40'0 0.0
2018-May-07 13:58N 35°29' E 139°40'0 0.0
2018-May-07 13:25N 35°29' E 139°40'0 0.0
2018-May-07 12:58N 35°29' E 139°40'0 0.0
2018-May-07 12:28N 35°29' E 139°40'0 0.0
2018-May-07 11:58N 35°29' E 139°40'0 0.0
2018-May-07 11:28N 35°29' E 139°40'0 0.0
2018-May-07 10:58N 35°29' E 139°40'0 0.0
2018-May-07 10:28N 35°29' E 139°40'0 0.0
2018-May-07 09:58N 35°29' E 139°40'0 0.0
2018-May-07 09:28N 35°29' E 139°40'0 0.0
2018-May-07 08:58N 35°29' E 139°40'0 0.0
2018-May-07 08:28N 35°29' E 139°40'0 0.0
2018-May-07 07:58N 35°29' E 139°40'0 0.0
2018-May-07 07:28N 35°29' E 139°40'0 0.0
2018-May-07 06:58N 35°29' E 139°40'0 0.0
2018-May-07 06:28N 35°29' E 139°40'0 0.0
2018-May-07 05:58N 35°29' E 139°40'0 0.0
2018-May-07 05:28N 35°29' E 139°40'0 0.0
2018-May-07 04:58N 35°29' E 139°40'0 0.0
2018-May-07 04:28N 35°29' E 139°40'0 0.0
2018-May-07 03:58N 35°29' E 139°40'0 0.0
2018-May-07 03:28N 35°29' E 139°40'0 0.0
2018-May-07 02:58N 35°29' E 139°40'0 0.0
2018-May-07 02:28N 35°29' E 139°40'0 0.0
2018-May-07 01:58N 35°29' E 139°40'0 0.0
2018-May-07 01:25N 35°29' E 139°40'0 0.0
2018-May-07 00:55N 35°29' E 139°40'0 0.0
2018-May-07 00:28N 35°29' E 139°40'0 0.0
2018-May-06 23:58N 35°29' E 139°40'0 0.0
2018-May-06 23:28N 35°29' E 139°40'0 0.0
2018-May-06 22:58N 35°29' E 139°40'0 0.0
2018-May-06 22:28N 35°29' E 139°40'0 0.0
2018-May-06 21:58N 35°29' E 139°40'0 0.0
2018-May-06 21:28N 35°29' E 139°40'0 0.0
2018-May-06 20:58N 35°29' E 139°40'0 0.0
2018-May-06 20:28N 35°29' E 139°40'0 0.0
2018-May-06 19:58N 35°29' E 139°40'0 0.0
2018-May-06 19:28N 35°29' E 139°40'0 0.0
2018-May-06 18:58N 35°29' E 139°40'0 0.0
2018-May-06 18:28N 35°29' E 139°40'0 0.0
2018-May-06 17:58N 35°29' E 139°40'0 0.0
2018-May-06 17:28N 35°29' E 139°40'0 0.0
2018-May-06 16:58N 35°29' E 139°40'0 0.0
2018-May-06 16:28N 35°29' E 139°40'0 0.0
2018-May-06 15:58N 35°29' E 139°40'0 0.0
2018-May-06 15:28N 35°29' E 139°40'0 0.0
2018-May-06 14:58N 35°29' E 139°40'0 0.0
2018-May-06 14:28N 35°29' E 139°40'0 0.0
2018-May-06 13:58N 35°29' E 139°40'0 0.0
2018-May-06 13:28N 35°29' E 139°40'0 0.0
2018-May-06 12:58N 35°29' E 139°40'0 0.0
2018-May-06 12:28N 35°29' E 139°40'0 0.0
2018-May-06 11:58N 35°29' E 139°40'0 0.0
2018-May-06 11:28N 35°29' E 139°40'0 0.0
2018-May-06 10:58N 35°29' E 139°40'0 0.0
2018-May-06 10:28N 35°29' E 139°40'0 0.0
2018-May-06 09:55N 35°29' E 139°40'0 0.0
2018-May-06 09:28N 35°29' E 139°40'0 0.0
2018-May-06 08:58N 35°29' E 139°40'0 0.0
2018-May-06 08:28N 35°29' E 139°40'0 0.0
2018-May-06 07:58N 35°29' E 139°40'0 0.0
2018-May-06 07:28N 35°29' E 139°40'0 0.0
2018-May-06 06:58N 35°29' E 139°40'0 0.0
2018-May-06 06:28N 35°29' E 139°40'0 0.0
2018-May-06 05:58N 35°29' E 139°40'0 0.0
2018-May-06 05:28N 35°29' E 139°40'0 0.0
2018-May-06 04:58N 35°29' E 139°40'0 0.0
2018-May-06 04:28N 35°29' E 139°40'0 0.0
2018-May-06 03:58N 35°29' E 139°40'0 0.0
2018-May-06 03:28N 35°29' E 139°40'0 0.1
2018-May-06 03:00N 35°29' E 139°40'2 3.6
2018-May-06 02:30N 35°27' E 139°41'5 9.2
2018-May-06 02:00N 35°23' E 139°43'510.9
2018-May-06 01:30N 35°18' E 139°45'510.0
2018-May-06 01:00N 35°13' E 139°47'611.6
2018-May-06 00:30N 35°07' E 139°46'612.1
2018-May-06 00:00N 35°01' E 139°44'611.0
2018-May-05 23:30N 34°56' E 139°45'5 9.4
2018-May-05 23:01N 34°52' E 139°49'8 9.7
2018-May-05 22:12N 34°53' E 139°58'2 8.4
2018-May-05 21:58N 34°54' E 140°00'4 8.0
2018-May-05 21:30N 34°55' E 140°04'4 8.1
2018-May-05 20:58N 34°57' E 140°09'510.0
2018-May-05 20:29N 35°00' E 140°14'510.8
2018-May-05 20:00N 35°03' E 140°19'1110.4
2018-May-05 18:56N 35°11' E 140°28'510.5
2018-May-05 18:30N 35°15' E 140°32'611.2
2018-May-05 17:59N 35°19' E 140°36'611.5
2018-May-05 17:30N 35°23' E 140°41'34310.8
2018-May-04 09:41N 41°03' E 141°41'211.7
2018-May-04 09:30N 41°05' E 141°40'611.5
2018-May-04 09:00N 41°11' E 141°38'1611.5
2018-May-04 07:39N 41°26' E 141°32'211.7
2018-May-04 07:30N 41°27' E 141°31'5 9.3
2018-May-04 07:01N 41°26' E 141°25'  
Track history (hours):
 
Tides and Currents Weather Stations Pressure Air Temp Water Temp Dewpoint Dewpoint Depression Visibility Wind Speed Wind Dir Waves Ship Positions

Zao Maru

Last reported at 2018-May-14 01:40 UTC. Time now 2018-Jun-23 10:22 UTC.
Position N 41°18' E 140°18'.
Warning: this ship's position is 40 days out of date.

Length 115 m; draft 7.4 m.

Type: Cargo ship. MMSI: 431700103.

Date/timePositionNaut miles runAvg speedWind from/ knotsBaromVisibWave heightAir tempDewpointWater temp
2018-May-14 01:40N 41°18' E 140°18'1 6.1
2018-May-14 01:26N 41°19' E 140°19'3 6.2
2018-May-14 01:00N 41°21' E 140°21'4 7.5
2018-May-14 00:30N 41°23' E 140°25'4 8.2
2018-May-14 00:00N 41°26' E 140°30'5 9.2
2018-May-13 23:30N 41°27' E 140°35'4 8.8
2018-May-13 23:00N 41°30' E 140°41'4 8.5
2018-May-13 22:30N 41°32' E 140°45'5 9.3
2018-May-13 22:01N 41°35' E 140°50'4 8.4
2018-May-13 21:31N 41°37' E 140°55'5 9.6
2018-May-13 21:00N 41°34' E 141°01'611.7
2018-May-13 20:30N 41°32' E 141°08'611.9
2018-May-13 20:00N 41°29' E 141°15'611.4
2018-May-13 19:30N 41°26' E 141°22'4 0.3
2018-May-13 05:32N 41°25' E 141°26'0 0.0
2018-May-13 05:29N 41°25' E 141°26'0 0.0
2018-May-13 04:58N 41°25' E 141°26'0 0.0
2018-May-13 04:25N 41°25' E 141°26'0 0.0
2018-May-13 04:00N 41°25' E 141°26'0 0.0
2018-May-13 03:12N 41°25' E 141°26'0 0.0
2018-May-13 02:57N 41°25' E 141°26'0 0.0
2018-May-13 02:30N 41°25' E 141°26'0 0.0
2018-May-13 02:00N 41°25' E 141°26'0 0.0
2018-May-13 00:55N 41°25' E 141°26'0 1.0
2018-May-13 00:30N 41°25' E 141°26'2 4.2
2018-May-13 00:00N 41°25' E 141°23'1 2.2
2018-May-12 23:29N 41°26' E 141°23'4 8.8
2018-May-12 23:00N 41°30' E 141°21'611.0
2018-May-12 22:29N 41°29' E 141°29'5 9.7
2018-May-12 22:00N 41°25' E 141°32'912.0
2018-May-12 21:15N 41°16' E 141°32'311.8
2018-May-12 21:00N 41°13' E 141°32'612.3
2018-May-12 20:30N 41°07' E 141°32'712.5
2018-May-12 19:59N 41°00' E 141°32'811.6
2018-May-12 19:17N 40°52' E 141°32'411.7
2018-May-12 18:56N 40°48' E 141°31'  
2018-May-10 09:07N 35°04' E 140°22'510.9
2018-May-10 08:42N 35°02' E 140°17'310.4
2018-May-10 08:23N 34°60' E 140°14'410.8
2018-May-10 07:59N 34°57' E 140°10'511.2
2018-May-10 07:30N 34°55' E 140°04'1011.3
2018-May-10 06:38N 34°51' E 139°53'110.4
2018-May-10 06:30N 34°51' E 139°52'510.1
2018-May-10 05:59N 34°52' E 139°45'611.6
2018-May-10 05:29N 34°57' E 139°43'511.4
2018-May-10 05:01N 35°03' E 139°44'611.7
2018-May-10 04:30N 35°09' E 139°45'612.5
2018-May-10 04:00N 35°15' E 139°46'612.1
2018-May-10 03:30N 35°20' E 139°43'2 3.9
2018-May-10 02:59N 35°22' E 139°44'0 0.1
2018-May-10 02:30N 35°22' E 139°44'0 0.1
2018-May-10 01:59N 35°22' E 139°44'0 0.0
2018-May-10 01:29N 35°22' E 139°44'0 0.0
2018-May-10 01:00N 35°22' E 139°44'0 0.0
2018-May-10 00:29N 35°22' E 139°44'0 0.0
2018-May-09 23:59N 35°22' E 139°44'0 0.0
2018-May-09 23:29N 35°22' E 139°44'0 0.0
2018-May-09 22:59N 35°22' E 139°44'0 0.0
2018-May-09 22:29N 35°22' E 139°44'0 0.0
2018-May-09 21:56N 35°22' E 139°44'0 0.0
2018-May-09 21:29N 35°22' E 139°44'0 0.0
2018-May-09 20:59N 35°22' E 139°44'0 0.0
2018-May-09 20:29N 35°22' E 139°44'0 0.0
2018-May-09 19:59N 35°22' E 139°44'0 0.0
2018-May-09 19:29N 35°22' E 139°44'0 0.0
2018-May-09 18:59N 35°22' E 139°44'0 0.0
2018-May-09 18:29N 35°22' E 139°44'0 0.0
2018-May-09 17:59N 35°22' E 139°44'0 0.0
2018-May-09 17:29N 35°22' E 139°44'0 0.0
2018-May-09 16:59N 35°22' E 139°44'0 0.0
2018-May-09 16:29N 35°22' E 139°44'0 0.0
2018-May-09 15:59N 35°22' E 139°44'0 0.0
2018-May-09 15:29N 35°22' E 139°44'0 0.0
2018-May-09 14:59N 35°22' E 139°44'0 0.0
2018-May-09 14:29N 35°22' E 139°44'0 0.0
2018-May-09 13:59N 35°22' E 139°44'0 0.0
2018-May-09 13:29N 35°22' E 139°44'0 0.0
2018-May-09 12:59N 35°22' E 139°44'0 0.0
2018-May-09 12:29N 35°22' E 139°44'0 0.0
2018-May-09 12:00N 35°22' E 139°44'0 0.0
2018-May-09 11:29N 35°22' E 139°44'0 0.0
2018-May-09 10:56N 35°22' E 139°44'0 0.0
2018-May-09 10:29N 35°22' E 139°44'0 0.0
2018-May-09 09:59N 35°22' E 139°44'0 0.0
2018-May-09 09:29N 35°22' E 139°44'0 0.0
2018-May-09 08:59N 35°22' E 139°44'0 0.0
2018-May-09 08:29N 35°22' E 139°44'0 0.0
2018-May-09 07:59N 35°22' E 139°44'0 0.0
2018-May-09 07:29N 35°22' E 139°44'0 0.0
2018-May-09 06:59N 35°22' E 139°44'0 0.0
2018-May-09 06:29N 35°22' E 139°44'0 0.0
2018-May-09 05:59N 35°22' E 139°44'0 0.0
2018-May-09 05:29N 35°22' E 139°44'0 0.0
2018-May-09 04:59N 35°22' E 139°44'0 0.1
2018-May-09 04:29N 35°22' E 139°44'0 0.0
2018-May-09 03:59N 35°22' E 139°44'0 0.0
2018-May-09 03:29N 35°22' E 139°44'0 0.0
2018-May-09 02:59N 35°22' E 139°44'0 0.0
2018-May-09 02:29N 35°22' E 139°44'0 0.0
2018-May-09 01:56N 35°22' E 139°44'0 0.0
2018-May-09 01:29N 35°22' E 139°44'0 0.0
2018-May-09 00:59N 35°22' E 139°44'0 0.0
2018-May-09 00:29N 35°22' E 139°44'0 0.0
2018-May-08 23:59N 35°22' E 139°44'0 0.0
2018-May-08 23:29N 35°22' E 139°44'0 0.0
2018-May-08 22:59N 35°22' E 139°44'0 0.0
2018-May-08 22:29N 35°22' E 139°44'0 0.0
2018-May-08 21:59N 35°22' E 139°44'0 0.0
2018-May-08 21:29N 35°22' E 139°44'0 0.0
2018-May-08 20:59N 35°22' E 139°44'0 0.0
2018-May-08 20:29N 35°22' E 139°44'0 0.1
2018-May-08 19:59N 35°22' E 139°44'0 0.0
2018-May-08 19:29N 35°22' E 139°44'0 0.0
2018-May-08 18:59N 35°22' E 139°44'0 0.0
2018-May-08 18:29N 35°22' E 139°44'0 0.0
2018-May-08 17:59N 35°22' E 139°44'0 0.0
2018-May-08 17:29N 35°22' E 139°44'0 0.0
2018-May-08 16:59N 35°22' E 139°44'0 0.0
2018-May-08 16:26N 35°22' E 139°44'0 0.0
2018-May-08 15:59N 35°22' E 139°44'0 0.0
2018-May-08 15:29N 35°22' E 139°44'0 0.0
2018-May-08 14:59N 35°22' E 139°44'0 0.0
2018-May-08 14:29N 35°22' E 139°44'0 0.0
2018-May-08 13:56N 35°22' E 139°44'0 0.0
2018-May-08 13:29N 35°22' E 139°44'0 0.0
2018-May-08 12:59N 35°22' E 139°44'0 0.0
2018-May-08 12:29N 35°22' E 139°44'0 0.0
2018-May-08 11:59N 35°22' E 139°44'0 0.0
2018-May-08 11:29N 35°22' E 139°44'0 0.0
2018-May-08 10:59N 35°22' E 139°44'0 0.0
2018-May-08 10:29N 35°22' E 139°44'0 0.0
2018-May-08 09:59N 35°22' E 139°44'0 0.0
2018-May-08 09:29N 35°22' E 139°44'0 0.0
2018-May-08 08:59N 35°22' E 139°44'0 0.0
2018-May-08 08:29N 35°22' E 139°44'0 0.0
2018-May-08 07:59N 35°22' E 139°44'0 0.0
2018-May-08 07:29N 35°22' E 139°44'0 0.0
2018-May-08 06:59N 35°22' E 139°44'0 0.0
2018-May-08 06:29N 35°22' E 139°44'0 0.0
2018-May-08 05:59N 35°22' E 139°44'0 0.0
2018-May-08 05:29N 35°22' E 139°44'0 0.0
2018-May-08 04:59N 35°22' E 139°44'0 0.0
2018-May-08 04:29N 35°22' E 139°44'0 0.0
2018-May-08 03:59N 35°22' E 139°44'0 0.0
2018-May-08 03:29N 35°22' E 139°44'0 0.0
2018-May-08 02:59N 35°22' E 139°44'0 0.2
2018-May-08 02:30N 35°22' E 139°44'3 5.6
2018-May-08 02:00N 35°25' E 139°43'4 9.0
2018-May-08 01:30N 35°29' E 139°40'0 0.6
2018-May-08 00:59N 35°29' E 139°40'0 0.0
2018-May-08 00:30N 35°29' E 139°40'0 0.0
2018-May-08 00:00N 35°29' E 139°40'0 0.0
2018-May-07 23:30N 35°29' E 139°40'0 0.0
2018-May-07 23:00N 35°29' E 139°40'0 0.0
2018-May-07 22:28N 35°29' E 139°40'0 0.0
2018-May-07 21:58N 35°29' E 139°40'0 0.0
2018-May-07 21:28N 35°29' E 139°40'0 0.0
2018-May-07 20:58N 35°29' E 139°40'0 0.0
2018-May-07 20:28N 35°29' E 139°40'0 0.0
2018-May-07 19:58N 35°29' E 139°40'0 0.0
2018-May-07 19:28N 35°29' E 139°40'0 0.0
2018-May-07 18:58N 35°29' E 139°40'0 0.0
2018-May-07 18:28N 35°29' E 139°40'0 0.0
2018-May-07 17:58N 35°29' E 139°40'0 0.0
2018-May-07 17:28N 35°29' E 139°40'0 0.0
2018-May-07 16:58N 35°29' E 139°40'0 0.0
2018-May-07 16:25N 35°29' E 139°40'0 0.0
2018-May-07 15:58N 35°29' E 139°40'0 0.0
2018-May-07 15:28N 35°29' E 139°40'0 0.0
2018-May-07 14:55N 35°29' E 139°40'0 0.0
2018-May-07 14:28N 35°29' E 139°40'0 0.0
2018-May-07 13:58N 35°29' E 139°40'0 0.0
2018-May-07 13:25N 35°29' E 139°40'0 0.0
2018-May-07 12:58N 35°29' E 139°40'0 0.0
2018-May-07 12:28N 35°29' E 139°40'0 0.0
2018-May-07 11:58N 35°29' E 139°40'0 0.0
2018-May-07 11:28N 35°29' E 139°40'0 0.0
2018-May-07 10:58N 35°29' E 139°40'0 0.0
2018-May-07 10:28N 35°29' E 139°40'0 0.0
2018-May-07 09:58N 35°29' E 139°40'0 0.0
2018-May-07 09:28N 35°29' E 139°40'0 0.0
2018-May-07 08:58N 35°29' E 139°40'0 0.0
2018-May-07 08:28N 35°29' E 139°40'0 0.0
2018-May-07 07:58N 35°29' E 139°40'0 0.0
2018-May-07 07:28N 35°29' E 139°40'0 0.0
2018-May-07 06:58N 35°29' E 139°40'0 0.0
2018-May-07 06:28N 35°29' E 139°40'0 0.0
2018-May-07 05:58N 35°29' E 139°40'0 0.0
2018-May-07 05:28N 35°29' E 139°40'0 0.0
2018-May-07 04:58N 35°29' E 139°40'0 0.0
2018-May-07 04:28N 35°29' E 139°40'0 0.0
2018-May-07 03:58N 35°29' E 139°40'0 0.0
2018-May-07 03:28N 35°29' E 139°40'0 0.0
2018-May-07 02:58N 35°29' E 139°40'0 0.0
2018-May-07 02:28N 35°29' E 139°40'0 0.0
2018-May-07 01:58N 35°29' E 139°40'0 0.0
2018-May-07 01:25N 35°29' E 139°40'0 0.0
2018-May-07 00:55N 35°29' E 139°40'0 0.0
2018-May-07 00:28N 35°29' E 139°40'0 0.0
2018-May-06 23:58N 35°29' E 139°40'0 0.0
2018-May-06 23:28N 35°29' E 139°40'0 0.0
2018-May-06 22:58N 35°29' E 139°40'0 0.0
2018-May-06 22:28N 35°29' E 139°40'0 0.0
2018-May-06 21:58N 35°29' E 139°40'0 0.0
2018-May-06 21:28N 35°29' E 139°40'0 0.0
2018-May-06 20:58N 35°29' E 139°40'0 0.0
2018-May-06 20:28N 35°29' E 139°40'0 0.0
2018-May-06 19:58N 35°29' E 139°40'0 0.0
2018-May-06 19:28N 35°29' E 139°40'0 0.0
2018-May-06 18:58N 35°29' E 139°40'0 0.0
2018-May-06 18:28N 35°29' E 139°40'0 0.0
2018-May-06 17:58N 35°29' E 139°40'0 0.0
2018-May-06 17:28N 35°29' E 139°40'0 0.0
2018-May-06 16:58N 35°29' E 139°40'0 0.0
2018-May-06 16:28N 35°29' E 139°40'0 0.0
2018-May-06 15:58N 35°29' E 139°40'0 0.0
2018-May-06 15:28N 35°29' E 139°40'0 0.0
2018-May-06 14:58N 35°29' E 139°40'0 0.0
2018-May-06 14:28N 35°29' E 139°40'0 0.0
2018-May-06 13:58N 35°29' E 139°40'0 0.0
2018-May-06 13:28N 35°29' E 139°40'0 0.0
2018-May-06 12:58N 35°29' E 139°40'0 0.0
2018-May-06 12:28N 35°29' E 139°40'0 0.0
2018-May-06 11:58N 35°29' E 139°40'0 0.0
2018-May-06 11:28N 35°29' E 139°40'0 0.0
2018-May-06 10:58N 35°29' E 139°40'0 0.0
2018-May-06 10:28N 35°29' E 139°40'0 0.0
2018-May-06 09:55N 35°29' E 139°40'0 0.0
2018-May-06 09:28N 35°29' E 139°40'0 0.0
2018-May-06 08:58N 35°29' E 139°40'0 0.0
2018-May-06 08:28N 35°29' E 139°40'0 0.0
2018-May-06 07:58N 35°29' E 139°40'0 0.0
2018-May-06 07:28N 35°29' E 139°40'0 0.0
2018-May-06 06:58N 35°29' E 139°40'0 0.0
2018-May-06 06:28N 35°29' E 139°40'0 0.0
2018-May-06 05:58N 35°29' E 139°40'0 0.0
2018-May-06 05:28N 35°29' E 139°40'0 0.0
2018-May-06 04:58N 35°29' E 139°40'0 0.0
2018-May-06 04:28N 35°29' E 139°40'0 0.0
2018-May-06 03:58N 35°29' E 139°40'0 0.0
2018-May-06 03:28N 35°29' E 139°40'0 0.1
2018-May-06 03:00N 35°29' E 139°40'2 3.6
2018-May-06 02:30N 35°27' E 139°41'5 9.2
2018-May-06 02:00N 35°23' E 139°43'510.9
2018-May-06 01:30N 35°18' E 139°45'510.0
2018-May-06 01:00N 35°13' E 139°47'611.6
2018-May-06 00:30N 35°07' E 139°46'612.1
2018-May-06 00:00N 35°01' E 139°44'611.0
2018-May-05 23:30N 34°56' E 139°45'5 9.4
2018-May-05 23:01N 34°52' E 139°49'8 9.7
2018-May-05 22:12N 34°53' E 139°58'2 8.4
2018-May-05 21:58N 34°54' E 140°00'4 8.0
2018-May-05 21:30N 34°55' E 140°04'4 8.1
2018-May-05 20:58N 34°57' E 140°09'510.0
2018-May-05 20:29N 35°00' E 140°14'510.8
2018-May-05 20:00N 35°03' E 140°19'1110.4
2018-May-05 18:56N 35°11' E 140°28'510.5
2018-May-05 18:30N 35°15' E 140°32'611.2
2018-May-05 17:59N 35°19' E 140°36'611.5
2018-May-05 17:30N 35°23' E 140°41'34310.8
2018-May-04 09:41N 41°03' E 141°41'211.7
2018-May-04 09:30N 41°05' E 141°40'611.5
2018-May-04 09:00N 41°11' E 141°38'1611.5
2018-May-04 07:39N 41°26' E 141°32'211.7
2018-May-04 07:30N 41°27' E 141°31'5 9.3
2018-May-04 07:01N 41°26' E 141°25'  

Dump ship's entire track history